Time;durP1;ratioP1;P1;durP2;ratioP2;P2;SDS_P1;SDS_P2;PMS_P1;PMS_P2;Temp;Humidity;BMP_temperature;BMP_pressure;BME280_temperature;BME280_humidity;BME280_pressure;Samples;Min_cycle;Max_cycle;Signal;HPM_P1;HPM_P2
2023/01/05 00:01:52;;;;;;;29.25;7.43;;;;;;;11.02;100.00;101532.28;5095074;28;20043;-46
2023/01/05 00:04:20;;;;;;;29.77;7.70;;;;;;;11.03;100.00;101527.63;5095090;28;20093;-44
2023/01/05 00:06:47;;;;;;;32.72;7.50;;;;;;;11.00;100.00;101526.25;5095834;28;20044;-45
2023/01/05 00:09:17;;;;;;;31.25;7.50;;;;;;;11.04;100.00;101519.22;5095566;28;20035;-45
2023/01/05 00:22:59;;;;;;;28.77;7.03;;;;;;;10.99;100.00;101516.44;5093826;28;20066;-46
2023/01/05 00:25:29;;;;;;;27.80;7.03;;;;;;;11.00;100.00;101526.25;5095648;28;20044;-45
2023/01/05 00:27:57;;;;;;;38.67;8.25;;;;;;;10.99;100.00;101531.94;5095378;28;20045;-48
2023/01/05 00:30:31;;;;;;;25.60;7.32;;;;;;;10.99;100.00;101527.34;5076601;28;20448;-45
2023/01/05 00:33:00;;;;;;;30.70;7.10;;;;;;;10.98;100.00;101528.41;5095176;28;20060;-46
2023/01/05 00:35:29;;;;;;;27.23;7.35;;;;;;;10.98;100.00;101522.94;5095605;28;20048;-46
2023/01/05 00:37:56;;;;;;;28.60;7.50;;;;;;;10.99;100.00;101524.59;5060331;28;20047;-45
2023/01/05 00:40:24;;;;;;;27.95;7.35;;;;;;;10.97;100.00;101529.47;5095110;28;20186;-46
2023/01/05 00:42:52;;;;;;;35.13;8.13;;;;;;;10.95;100.00;101523.47;5095743;28;20068;-47
2023/01/05 00:45:20;;;;;;;35.88;7.70;;;;;;;10.94;100.00;101516.34;5098391;28;20089;-47
2023/01/05 00:47:50;;;;;;;34.22;8.00;;;;;;;10.94;100.00;101520.97;5091716;28;20055;-46
2023/01/05 00:50:19;;;;;;;33.95;8.48;;;;;;;10.90;100.00;101525.31;5093816;28;20047;-46
2023/01/05 00:52:47;;;;;;;26.73;7.32;;;;;;;10.88;100.00;101517.38;5092816;28;20404;-46
2023/01/05 00:55:15;;;;;;;28.63;7.05;;;;;;;10.87;100.00;101521.16;5079711;28;20036;-46
2023/01/05 00:57:44;;;;;;;25.10;6.57;;;;;;;10.84;100.00;101518.94;5094079;28;20051;-46
2023/01/05 01:00:17;;;;;;;23.13;6.80;;;;;;;10.84;100.00;101529.84;5094445;28;20498;-44
2023/01/05 01:02:46;;;;;;;30.15;7.25;;;;;;;10.81;100.00;101522.19;5110482;28;20136;-45
2023/01/05 01:05:14;;;;;;;28.45;7.05;;;;;;;10.79;100.00;101524.31;5092993;28;20406;-46
2023/01/05 01:07:42;;;;;;;32.55;7.72;;;;;;;10.77;100.00;101540.09;5094052;28;20046;-44
2023/01/05 01:10:10;;;;;;;26.20;7.07;;;;;;;10.79;100.00;101535.22;5076220;28;20517;-45
2023/01/05 01:12:38;;;;;;;31.20;7.50;;;;;;;10.76;100.00;101539.28;5094444;28;20062;-45
2023/01/05 01:15:07;;;;;;;25.95;6.80;;;;;;;10.74;100.00;101540.63;5091379;28;20471;-45
2023/01/05 01:17:35;;;;;;;20.77;5.75;;;;;;;10.76;100.00;101535.75;5094733;28;20414;-44
2023/01/05 01:20:03;;;;;;;34.22;7.55;;;;;;;10.75;100.00;101537.66;5094343;28;20044;-45
2023/01/05 01:22:31;;;;;;;29.60;7.75;;;;;;;10.74;100.00;101537.88;5094495;28;20059;-45
2023/01/05 01:25:00;;;;;;;24.90;6.97;;;;;;;10.73;100.00;101541.72;5091018;28;20036;-46
2023/01/05 01:27:30;;;;;;;28.88;6.55;;;;;;;10.71;100.00;101541.13;5092370;28;20036;-46
2023/01/05 01:29:57;;;;;;;35.28;7.47;;;;;;;10.71;100.00;101554.75;5094316;28;20051;-46
2023/01/05 01:32:25;;;;;;;31.52;7.00;;;;;;;10.71;100.00;101560.22;5094026;28;20048;-44
2023/01/05 01:34:54;;;;;;;36.88;7.68;;;;;;;10.70;100.00;101561.25;5093586;28;20036;-45
2023/01/05 01:37:21;;;;;;;29.42;7.47;;;;;;;10.69;100.00;101562.34;5092824;28;20063;-46
2023/01/05 01:39:52;;;;;;;35.63;7.95;;;;;;;10.66;100.00;101556.31;5092525;28;20468;-45
2023/01/05 01:42:20;;;;;;;31.17;7.68;;;;;;;10.63;100.00;101559.56;5081140;28;20086;-45
2023/01/05 01:44:54;;;;;;;29.00;7.40;;;;;;;10.63;100.00;101564.16;5074377;28;20143;-45
2023/01/05 01:47:50;;;;;;;29.23;7.40;;;;;;;10.65;100.00;101568.31;5091307;28;20040;-44
2023/01/05 01:50:25;;;;;;;36.45;8.05;;;;;;;10.62;100.00;101578.88;5085527;28;20058;-45
2023/01/05 01:52:59;;;;;;;29.27;7.25;;;;;;;10.61;100.00;101579.97;5092660;28;20113;-45
2023/01/05 01:55:27;;;;;;;31.80;7.53;;;;;;;10.61;100.00;101583.50;5092547;28;20044;-46
2023/01/05 01:57:55;;;;;;;22.95;6.80;;;;;;;10.62;100.00;101589.78;5091711;28;20143;-45
2023/01/05 02:00:23;;;;;;;29.33;6.90;;;;;;;10.62;100.00;101590.59;5075655;28;20040;-46
2023/01/05 02:02:54;;;;;;;28.38;7.07;;;;;;;10.61;100.00;101602.59;5092804;28;20064;-45
2023/01/05 02:05:28;;;;;;;27.58;7.45;;;;;;;10.59;100.00;101607.44;5059126;28;20036;-45
2023/01/05 02:07:56;;;;;;;29.98;7.22;;;;;;;10.57;100.00;101606.06;5092277;28;20047;-44
2023/01/05 02:10:42;;;;;;;27.80;7.63;;;;;;;10.59;100.00;101596.56;5091517;28;20035;-46
2023/01/05 02:13:28;;;;;;;;;;;;;;;10.61;100.00;101596.31;5091728;28;20044;-44
2023/01/05 02:16:05;;;;;;;32.58;7.93;;;;;;;10.62;100.00;101590.59;5093019;28;20320;-47
2023/01/05 02:18:56;;;;;;;30.67;7.47;;;;;;;10.60;100.00;101587.28;5075694;28;20064;-48
2023/01/05 02:21:59;;;;;;;21.58;5.45;;;;;;;10.61;100.00;101599.03;5093577;28;20051;-45
2023/01/05 02:24:55;;;;;;;37.53;8.68;;;;;;;10.61;100.00;101601.75;5067738;28;20040;-47
2023/01/05 02:27:49;;;;;;;31.92;8.13;;;;;;;10.61;100.00;101605.31;5092152;28;20071;-45
2023/01/05 02:30:39;;;;;;;27.00;7.43;;;;;;;10.62;100.00;101601.50;5088482;28;20114;-46
2023/01/05 02:33:30;;;;;;;34.05;8.40;;;;;;;10.62;100.00;101603.41;5108872;28;20054;-46
2023/01/05 02:36:02;;;;;;;30.65;7.07;;;;;;;10.60;100.00;101598.19;5091654;28;20047;-47
2023/01/05 02:38:48;;;;;;;34.30;8.48;;;;;;;10.60;100.00;101598.19;5088178;28;20044;-46
2023/01/05 02:41:37;;;;;;;29.02;7.45;;;;;;;10.60;100.00;101584.56;5089461;28;20036;-46
2023/01/05 02:44:07;;;;;;;29.88;7.15;;;;;;;10.62;100.00;101601.50;5075300;28;20036;-46
2023/01/05 02:46:35;;;;;;;26.45;6.30;;;;;;;10.69;100.00;101598.59;5091107;28;20050;-46
2023/01/05 02:49:04;;;;;;;30.05;7.13;;;;;;;10.69;100.00;101595.06;5108486;28;20097;-45
2023/01/05 02:51:38;;;;;;;29.92;7.28;;;;;;;10.67;100.00;101603.47;5091782;28;20040;-46
2023/01/05 02:54:19;;;;;;;31.58;7.45;;;;;;;10.63;100.00;101597.72;5076077;28;20040;-46
2023/01/05 02:56:55;;;;;;;27.60;6.78;;;;;;;10.66;100.00;101602.66;5076731;28;20463;-46
2023/01/05 02:59:35;;;;;;;25.88;6.63;;;;;;;10.64;100.00;101609.44;5091969;28;20128;-45
2023/01/05 03:02:17;;;;;;;31.92;7.38;;;;;;;10.64;100.00;101610.25;5074125;28;20064;-46
2023/01/05 03:04:56;;;;;;;30.38;7.68;;;;;;;10.62;100.00;101611.56;5088462;28;20553;-44
2023/01/05 03:07:27;;;;;;;30.65;7.78;;;;;;;10.62;100.00;101601.50;5091774;28;20032;-44
2023/01/05 03:09:55;;;;;;;33.08;7.00;;;;;;;10.63;100.00;101602.31;5072546;28;20071;-47
2023/01/05 03:15:25;;;;;;;28.58;7.28;;;;;;;10.62;100.00;101606.94;5076180;28;20127;-46
2023/01/05 03:18:10;;;;;;;30.52;8.05;;;;;;;10.63;100.00;101613.22;5074709;28;20486;-46
2023/01/05 03:20:45;;;;;;;25.38;6.53;;;;;;;10.65;100.00;101611.06;5090318;28;20375;-44
2023/01/05 03:37:51;;;;;;;33.67;8.05;;;;;;;10.63;100.00;101616.78;5081974;28;20149;-46
2023/01/05 03:40:29;;;;;;;31.30;7.25;;;;;;;10.58;100.00;101614.00;5090461;28;20040;-45
2023/01/05 03:42:58;;;;;;;32.50;8.15;;;;;;;10.58;100.00;101611.25;5069123;28;20094;-46
2023/01/05 03:45:36;;;;;;;31.98;7.70;;;;;;;10.58;100.00;101614.00;5057808;28;20136;-45
2023/01/05 03:48:04;;;;;;;30.92;7.55;;;;;;;10.59;100.00;101614.81;5096410;28;20054;-44
2023/01/05 03:50:33;;;;;;;37.10;8.43;;;;;;;10.58;100.00;101605.81;5096441;28;20040;-47
2023/01/05 03:53:00;;;;;;;30.95;7.85;;;;;;;10.58;100.00;101603.09;5092615;28;20044;-45
2023/01/05 03:55:30;;;;;;;30.67;7.47;;;;;;;10.59;100.00;101607.44;5078241;28;20044;-45
2023/01/05 03:57:58;;;;;;;28.38;7.25;;;;;;;10.59;100.00;101607.44;5096085;28;20116;-45
2023/01/05 04:00:27;;;;;;;25.10;6.32;;;;;;;10.61;100.00;101599.84;5077744;28;20040;-45
2023/01/05 04:03:02;;;;;;;26.50;6.43;;;;;;;10.60;100.00;101609.09;5080492;28;20041;-47
2023/01/05 04:05:30;;;;;;;30.25;8.05;;;;;;;10.58;100.00;101602.25;5077248;28;20118;-45
2023/01/05 04:07:59;;;;;;;38.40;8.18;;;;;;;10.59;100.00;101618.34;5094781;28;20036;-49
2023/01/05 04:10:28;;;;;;;29.38;6.75;;;;;;;10.61;100.00;101605.31;5094570;28;20040;-46
2023/01/05 04:13:01;;;;;;;31.27;7.55;;;;;;;10.62;100.00;101612.41;5077913;28;20040;-46
2023/01/05 04:15:49;;;;;;;27.50;7.13;;;;;;;10.59;100.00;101618.34;5093680;28;20105;-47
2023/01/05 04:18:37;;;;;;;33.95;7.63;;;;;;;10.59;100.00;101612.09;5094823;28;20044;-47
2023/01/05 04:21:06;;;;;;;31.80;7.55;;;;;;;10.57;100.00;101615.03;5093822;28;20110;-45
2023/01/05 04:23:34;;;;;;;36.42;8.57;;;;;;;10.56;100.00;101621.59;5059572;28;20047;-46
2023/01/05 04:26:03;;;;;;;28.50;7.30;;;;;;;10.58;100.00;101613.13;5093922;28;20040;-46
2023/01/05 04:28:32;;;;;;;33.00;7.60;;;;;;;10.57;100.00;101627.84;5077995;28;20032;-45
2023/01/05 04:31:01;;;;;;;33.85;7.50;;;;;;;10.56;100.00;101627.03;5094824;28;20083;-47
2023/01/05 04:33:30;;;;;;;31.88;7.28;;;;;;;10.55;100.00;101627.28;5094319;28;20485;-47
2023/01/05 04:35:58;;;;;;;37.42;8.35;;;;;;;10.57;100.00;101622.41;5094912;28;20542;-45
2023/01/05 04:38:28;;;;;;;30.42;7.18;;;;;;;10.56;100.00;101629.75;5093968;28;20055;-45
2023/01/05 04:40:56;;;;;;;30.92;8.23;;;;;;;10.56;100.00;101628.91;5094608;28;20548;-45
2023/01/05 04:43:25;;;;;;;33.58;7.78;;;;;;;10.56;100.00;101629.75;5082506;28;20064;-49
2023/01/05 04:45:56;;;;;;;30.50;7.90;;;;;;;10.62;100.00;101630.66;5107217;28;20071;-44
2023/01/05 04:48:24;;;;;;;36.92;7.72;;;;;;;10.59;100.00;101636.59;5093873;28;20055;-44
2023/01/05 04:50:54;;;;;;;31.63;7.30;;;;;;;10.59;100.00;101621.06;5093666;28;21701;-45
2023/01/05 04:53:28;;;;;;;34.50;7.80;;;;;;;10.58;100.00;101627.63;5077848;28;20044;-45
2023/01/05 04:55:56;;;;;;;32.75;7.90;;;;;;;10.58;100.00;101619.44;5109674;28;20032;-45
2023/01/05 04:58:24;;;;;;;29.85;7.13;;;;;;;10.58;100.00;101616.72;5093717;28;20040;-44
2023/01/05 05:00:56;;;;;;;31.05;7.22;;;;;;;10.60;100.00;101611.81;5093355;28;20494;-44
2023/01/05 05:03:24;;;;;;;29.48;7.85;;;;;;;10.62;100.00;101625.19;5085393;28;20066;-45
2023/01/05 05:06:00;;;;;;;34.83;8.75;;;;;;;10.62;100.00;101628.75;5091227;28;20509;-45
2023/01/05 05:08:29;;;;;;;35.03;7.95;;;;;;;10.57;100.00;101631.41;5109401;28;20071;-45
2023/01/05 05:10:59;;;;;;;36.05;8.05;;;;;;;10.57;100.00;101631.41;5109301;28;20474;-44
2023/01/05 05:13:30;;;;;;;35.28;8.70;;;;;;;10.56;100.00;101634.34;5076452;28;20039;-45
2023/01/05 05:16:00;;;;;;;30.75;6.95;;;;;;;10.56;100.00;101647.97;5091353;28;20063;-45
2023/01/05 05:18:29;;;;;;;29.67;7.43;;;;;;;10.56;100.00;101640.66;5072308;28;20124;-44
2023/01/05 05:20:58;;;;;;;34.35;8.35;;;;;;;10.57;100.00;101652.38;5084786;28;20073;-45
2023/01/05 05:23:30;;;;;;;28.33;7.30;;;;;;;10.56;100.00;101654.28;5093157;28;20063;-46
2023/01/05 05:25:59;;;;;;;36.78;8.07;;;;;;;10.57;100.00;101669.53;5094053;28;20135;-47
2023/01/05 05:28:27;;;;;;;29.65;7.50;;;;;;;10.57;100.00;101660.56;5090204;28;20101;-46
2023/01/05 05:30:55;;;;;;;29.27;7.32;;;;;;;10.57;100.00;101658.66;5093072;28;20051;-46
2023/01/05 05:33:23;;;;;;;38.42;8.82;;;;;;;10.56;100.00;101667.91;5092966;28;20047;-46
2023/01/05 05:35:51;;;;;;;35.25;8.43;;;;;;;10.55;100.00;101658.06;5093478;28;20048;-45
2023/01/05 05:38:19;;;;;;;28.33;7.28;;;;;;;10.55;100.00;101663.50;5092134;28;20539;-46
2023/01/05 05:40:50;;;;;;;29.90;7.22;;;;;;;10.55;100.00;101665.41;5093018;28;20043;-46
2023/01/05 05:43:17;;;;;;;31.77;7.68;;;;;;;10.55;100.00;101668.97;5091857;28;20048;-45
2023/01/05 05:45:45;;;;;;;34.08;8.00;;;;;;;10.56;100.00;101675.22;5092817;28;20483;-44
2023/01/05 05:48:18;;;;;;;36.00;8.55;;;;;;;10.55;100.00;101679.03;5090256;28;20088;-44
2023/01/05 05:50:45;;;;;;;29.63;7.93;;;;;;;10.54;100.00;101678.22;5084847;28;20051;-45
2023/01/05 05:53:13;;;;;;;38.33;7.70;;;;;;;10.56;100.00;101681.53;5085750;28;20044;-45
2023/01/05 05:55:41;;;;;;;34.38;7.75;;;;;;;10.59;100.00;101678.31;5092723;28;20047;-44
2023/01/05 05:58:09;;;;;;;38.90;8.82;;;;;;;10.60;100.00;101696.28;5091600;28;20467;-44
2023/01/05 06:00:36;;;;;;;34.20;7.93;;;;;;;10.58;100.00;101686.72;5091250;28;21539;-44
2023/01/05 06:03:04;;;;;;;36.20;8.35;;;;;;;10.58;100.00;101695.75;5089092;28;20502;-44
2023/01/05 06:05:32;;;;;;;34.13;7.80;;;;;;;10.56;100.00;101697.88;5093129;28;20036;-43
2023/01/05 06:07:59;;;;;;;35.45;8.35;;;;;;;10.56;100.00;101700.59;5092768;28;20051;-44
2023/01/05 06:10:27;;;;;;;30.00;7.15;;;;;;;10.56;100.00;101706.06;5093384;28;20036;-45
2023/01/05 06:12:55;;;;;;;34.00;7.82;;;;;;;10.54;100.00;101702.75;5091781;28;20062;-44
2023/01/05 06:15:23;;;;;;;33.58;7.90;;;;;;;10.58;100.00;101706.63;5093361;28;20048;-44
2023/01/05 06:17:50;;;;;;;33.35;7.78;;;;;;;10.55;100.00;101712.56;5093190;28;20032;-46
2023/01/05 06:20:18;;;;;;;31.45;7.78;;;;;;;10.54;100.00;101724.53;5092096;28;20040;-45
2023/01/05 06:22:46;;;;;;;40.63;9.68;;;;;;;10.56;100.00;101727.84;5091436;28;20028;-45
2023/01/05 06:25:13;;;;;;;34.28;8.43;;;;;;;10.54;100.00;101721.81;5091745;28;20410;-44
2023/01/05 06:27:43;;;;;;;43.50;9.27;;;;;;;10.56;100.00;101727.00;5092239;28;20501;-43
2023/01/05 06:30:12;;;;;;;35.08;8.15;;;;;;;10.55;100.00;101736.25;5093075;28;20051;-44
2023/01/05 06:32:39;;;;;;;37.53;7.95;;;;;;;10.53;100.00;101732.94;5092539;28;20042;-44
2023/01/05 06:35:07;;;;;;;40.85;8.05;;;;;;;10.53;100.00;101736.50;5090695;28;20044;-45
2023/01/05 06:37:35;;;;;;;30.40;7.90;;;;;;;10.50;100.00;101739.72;5092972;28;20040;-43
2023/01/05 06:40:03;;;;;;;33.47;7.75;;;;;;;10.47;100.00;101748.41;5092334;28;20044;-45
2023/01/05 06:42:31;;;;;;;30.25;7.82;;;;;;;10.47;100.00;101737.50;5093039;28;20379;-46
2023/01/05 06:44:59;;;;;;;36.38;7.80;;;;;;;10.47;100.00;101740.22;5092012;28;20063;-45
2023/01/05 06:47:27;;;;;;;38.03;8.52;;;;;;;10.45;100.00;101753.25;5093261;28;20040;-47
2023/01/05 06:49:54;;;;;;;39.03;8.13;;;;;;;10.45;100.00;101748.63;5092141;28;20059;-46
2023/01/05 06:52:22;;;;;;;33.50;8.00;;;;;;;10.45;100.00;101747.81;5093012;28;20052;-47
2023/01/05 06:54:50;;;;;;;39.47;8.20;;;;;;;10.45;100.00;101753.25;5092912;28;20059;-46
2023/01/05 06:57:17;;;;;;;38.17;9.18;;;;;;;10.45;100.00;101761.44;5092305;28;20040;-51
2023/01/05 06:59:45;;;;;;;37.67;8.73;;;;;;;10.43;100.00;101767.13;4386020;28;10000798;-46
2023/01/05 07:02:15;;;;;;;35.05;8.27;;;;;;;10.45;100.00;101769.59;5088595;28;20113;-46
2023/01/05 07:04:43;;;;;;;36.03;8.45;;;;;;;10.44;100.00;101757.06;5088392;28;20063;-48
2023/01/05 07:07:15;;;;;;;34.90;8.18;;;;;;;10.44;100.00;101760.59;5089484;28;20809;-48
2023/01/05 07:09:47;;;;;;;41.72;8.85;;;;;;;10.45;100.00;101751.34;5088534;28;20044;-46
2023/01/05 07:12:16;;;;;;;42.90;9.68;;;;;;;10.46;100.00;101754.91;5089421;28;20039;-46
2023/01/05 07:14:44;;;;;;;36.92;8.10;;;;;;;10.44;100.00;101765.25;5087736;28;20040;-44
2023/01/05 07:17:12;;;;;;;38.40;9.07;;;;;;;10.44;100.00;101768.78;5088606;28;20430;-43
2023/01/05 07:19:39;;;;;;;34.20;8.82;;;;;;;10.48;100.00;101776.47;5089230;28;20036;-46
2023/01/05 07:22:07;;;;;;;39.90;8.40;;;;;;;10.45;100.00;101772.34;5089802;28;20508;-45
2023/01/05 07:24:34;;;;;;;40.40;9.10;;;;;;;10.43;100.00;101775.28;5092538;28;20037;-47
2023/01/05 07:27:02;;;;;;;39.55;9.95;;;;;;;10.41;100.00;101776.59;5087849;28;20036;-45
2023/01/05 07:29:36;;;;;;;36.35;8.40;;;;;;;10.41;100.00;101773.88;5092326;28;20552;-44
2023/01/05 07:32:04;;;;;;;33.42;7.22;;;;;;;10.42;100.00;101772.81;5092795;28;20048;-45
2023/01/05 07:34:32;;;;;;;37.03;8.60;;;;;;;10.40;100.00;101783.13;5092827;28;20044;-42
2023/01/05 07:36:59;;;;;;;32.40;8.32;;;;;;;10.38;100.00;101788.81;5092441;28;20078;-43
2023/01/05 07:39:27;;;;;;;33.88;8.05;;;;;;;10.38;100.00;101785.28;5092192;28;20028;-43
2023/01/05 07:41:55;;;;;;;31.75;7.88;;;;;;;10.37;100.00;101795.34;5090129;28;20042;-45
2023/01/05 07:44:25;;;;;;;35.75;8.23;;;;;;;10.38;100.00;101798.88;5091202;28;20063;-44
2023/01/05 07:46:53;;;;;;;34.47;8.50;;;;;;;10.38;100.00;101790.72;5092100;28;20406;-43
2023/01/05 07:49:21;;;;;;;35.10;8.38;;;;;;;10.37;100.00;101799.97;5092142;28;20040;-43
2023/01/05 07:51:48;;;;;;;33.03;8.15;;;;;;;10.48;100.00;101796.34;5092231;28;20040;-43
2023/01/05 07:54:16;;;;;;;33.03;7.90;;;;;;;10.44;100.00;101798.75;5074036;28;20048;-42
2023/01/05 07:56:44;;;;;;;39.10;9.35;;;;;;;10.45;100.00;101797.66;5089413;28;20047;-43
2023/01/05 07:59:11;;;;;;;37.65;9.15;;;;;;;10.49;100.00;101813.56;5087257;28;20146;-44
2023/01/05 08:01:39;;;;;;;34.80;8.57;;;;;;;10.46;100.00;101809.38;5092404;28;20090;-45
2023/01/05 08:04:07;;;;;;;42.33;8.77;;;;;;;10.43;100.00;101809.88;5090959;28;20041;-43
2023/01/05 08:06:35;;;;;;;37.30;8.43;;;;;;;10.41;100.00;101801.97;5092157;28;20055;-44
2023/01/05 08:10:27;;;;;;;44.45;8.55;;;;;;;10.40;100.00;101810.38;5095253;28;20403;-43
2023/01/05 08:11:51;;;;;;;37.83;8.55;;;;;;;10.42;100.00;101813.69;5096028;28;20109;-44
2023/01/05 08:14:18;;;;;;;37.20;8.55;;;;;;;10.42;100.00;101813.69;5095545;28;20051;-44
2023/01/05 08:16:46;;;;;;;38.60;7.97;;;;;;;10.41;100.00;101809.28;5094688;28;20044;-44
2023/01/05 08:19:13;;;;;;;37.67;8.77;;;;;;;10.42;100.00;101827.31;5091003;28;20039;-45
2023/01/05 08:21:41;;;;;;;31.25;7.65;;;;;;;10.45;100.00;101835.00;5088484;28;20385;-46
2023/01/05 08:24:09;;;;;;;36.75;8.38;;;;;;;10.44;100.00;101822.47;5098189;28;20544;-45
2023/01/05 08:26:36;;;;;;;32.28;8.52;;;;;;;10.43;100.00;101826.22;5095784;28;20044;-44
2023/01/05 08:29:04;;;;;;;35.35;8.52;;;;;;;10.43;100.00;101835.22;5092544;28;20086;-44
2023/01/05 08:31:36;;;;;;;33.45;8.73;;;;;;;10.41;100.00;101840.13;5092141;28;20048;-45
2023/01/05 08:34:04;;;;;;;31.85;8.00;;;;;;;10.42;100.00;101835.50;5097135;28;20032;-44
2023/01/05 08:36:32;;;;;;;37.05;8.48;;;;;;;10.40;100.00;101840.34;5097138;28;20098;-45
2023/01/05 08:39:00;;;;;;;39.13;8.77;;;;;;;10.39;100.00;101853.16;5095291;28;20409;-44
2023/01/05 08:41:31;;;;;;;33.17;8.55;;;;;;;10.42;100.00;101852.66;5093481;28;20040;-44
2023/01/05 08:44:00;;;;;;;37.40;9.02;;;;;;;10.44;100.00;101860.59;5095439;28;20210;-46
2023/01/05 08:46:31;;;;;;;32.28;8.40;;;;;;;10.45;100.00;101863.06;5060979;28;20040;-47
2023/01/05 08:49:00;;;;;;;37.72;9.43;;;;;;;10.45;100.00;101867.69;5077370;28;20056;-46
2023/01/05 08:51:28;;;;;;;38.03;8.63;;;;;;;10.42;100.00;101863.56;5092211;28;20051;-44
2023/01/05 08:53:56;;;;;;;43.30;8.68;;;;;;;10.45;100.00;101873.13;5093154;28;20044;-45
2023/01/05 08:56:25;;;;;;;36.53;8.13;;;;;;;10.42;100.00;101873.63;5094853;28;20071;-45
2023/01/05 08:58:54;;;;;;;34.08;8.30;;;;;;;10.42;100.00;101876.34;5094906;28;20040;-46
2023/01/05 09:01:22;;;;;;;48.90;10.10;;;;;;;10.43;100.00;101891.63;5093731;28;20032;-47
2023/01/05 09:03:50;;;;;;;39.28;9.77;;;;;;;10.46;100.00;101891.13;5094577;28;20040;-44
2023/01/05 09:06:17;;;;;;;40.22;8.90;;;;;;;10.47;100.00;101886.53;5094667;28;20425;-44
2023/01/05 09:08:45;;;;;;;33.65;8.25;;;;;;;10.48;100.00;101883.53;5111010;28;20043;-46
2023/01/05 09:11:19;;;;;;;30.10;7.82;;;;;;;10.47;100.00;101891.97;5093778;28;20505;-47
2023/01/05 09:13:49;;;;;;;35.55;7.80;;;;;;;10.49;100.00;101906.19;5094473;28;20032;-47
2023/01/05 09:16:19;;;;;;;44.35;9.48;;;;;;;10.47;100.00;101903.69;5094327;28;20111;-46
2023/01/05 09:19:08;;;;;;;41.13;9.73;;;;;;;10.43;100.00;101905.25;5084931;28;20062;-48
2023/01/05 09:21:39;;;;;;;40.35;9.38;;;;;;;10.39;100.00;101913.09;5093971;28;20042;-48
2023/01/05 09:24:10;;;;;;;39.38;9.65;;;;;;;10.37;100.00;101903.50;5092345;28;20044;-46
2023/01/05 09:26:41;;;;;;;37.05;8.90;;;;;;;10.39;100.00;101912.22;5072764;28;20460;-43
2023/01/05 09:29:10;;;;;;;39.38;8.45;;;;;;;10.40;100.00;101903.81;5084944;28;20559;-48
2023/01/05 09:31:41;;;;;;;43.15;9.02;;;;;;;10.41;100.00;101905.50;5094245;28;20040;-47
2023/01/05 09:34:09;;;;;;;37.80;8.43;;;;;;;10.41;100.00;101910.94;5093377;28;20192;-46
2023/01/05 09:36:40;;;;;;;39.70;8.98;;;;;;;10.42;100.00;101925.41;5093868;28;20062;-48
2023/01/05 09:39:08;;;;;;;33.22;8.32;;;;;;;10.42;100.00;101920.78;5094390;28;20044;-44
2023/01/05 09:41:43;;;;;;;45.28;9.68;;;;;;;10.40;100.00;101924.81;5060100;28;20512;-48
2023/01/05 09:44:42;;;;;;;35.37;9.60;;;;;;;10.36;100.00;101924.44;5092227;28;20036;-46
2023/01/05 09:47:20;;;;;;;42.33;10.00;;;;;;;10.37;100.00;101933.47;5092301;28;20032;-45
2023/01/05 09:49:49;;;;;;;36.42;8.60;;;;;;;10.37;100.00;101926.13;5093030;28;20056;-48
2023/01/05 09:52:19;;;;;;;39.70;8.75;;;;;;;10.38;100.00;101935.09;5092179;28;20047;-47
2023/01/05 09:54:48;;;;;;;38.67;8.48;;;;;;;10.40;100.00;101932.97;5092358;28;20044;-45
2023/01/05 09:57:18;;;;;;;35.40;8.98;;;;;;;10.44;100.00;101942.34;5093078;28;20039;-48
2023/01/05 09:59:48;;;;;;;37.45;8.68;;;;;;;10.45;100.00;101938.53;5094209;28;20048;-46
2023/01/05 10:02:32;;;;;;;40.15;9.85;;;;;;;10.47;100.00;101941.84;5092375;28;20089;-46
2023/01/05 10:05:01;;;;;;;43.47;9.90;;;;;;;10.46;100.00;101948.34;5092828;28;20044;-49
2023/01/05 10:08:10;;;;;;;44.28;10.32;;;;;;;10.48;100.00;101948.13;5095770;28;20036;-47
2023/01/05 10:10:44;;;;;;;32.72;8.68;;;;;;;10.51;100.00;101956.66;5092409;28;20395;-48
2023/01/05 10:13:27;;;;;;;35.88;7.63;;;;;;;10.53;100.00;101957.22;5091187;28;20068;-47
2023/01/05 10:15:55;;;;;;;33.70;7.82;;;;;;;10.53;100.00;101951.78;5093404;28;20040;-48
2023/01/05 10:18:30;;;;;;;38.17;8.40;;;;;;;10.55;100.00;101955.09;5093841;28;20059;-46
2023/01/05 10:21:16;;;;;;;40.35;8.55;;;;;;;10.59;100.00;101964.47;5075253;28;20555;-47
2023/01/05 10:24:01;;;;;;;32.38;8.52;;;;;;;10.57;100.00;101958.41;5091991;28;20075;-50
2023/01/05 10:26:48;;;;;;;42.65;9.82;;;;;;;10.60;100.00;101955.19;5089575;28;20032;-50
2023/01/05 10:29:41;;;;;;;38.45;9.32;;;;;;;10.57;100.00;101963.88;5071779;28;20051;-45
2023/01/05 10:32:36;;;;;;;42.83;9.90;;;;;;;10.57;100.00;101969.31;5091611;28;20048;-50
2023/01/05 10:35:19;;;;;;;39.08;9.43;;;;;;;10.56;100.00;101967.66;5092029;28;20048;-47
2023/01/05 10:38:43;;;;;;;43.42;9.45;;;;;;;10.57;100.00;101966.59;5093121;28;20044;-47
2023/01/05 10:41:28;;;;;;;37.05;8.85;;;;;;;10.61;100.00;101965.03;5093053;28;20477;-49
2023/01/05 10:44:24;;;;;;;39.20;10.45;;;;;;;10.65;100.00;101966.22;5079575;28;20048;-48
2023/01/05 10:46:51;;;;;;;39.67;9.05;;;;;;;10.63;100.00;101968.38;5091670;28;20071;-47
2023/01/05 10:49:25;;;;;;;53.45;10.25;;;;;;;10.66;100.00;101967.06;5092901;28;20048;-53
2023/01/05 10:51:54;;;;;;;34.90;8.35;;;;;;;10.66;100.00;101956.16;5091920;28;20040;-49
2023/01/05 10:54:32;;;;;;;36.33;8.68;;;;;;;10.70;100.00;101961.94;5092111;28;20429;-50
2023/01/05 10:57:28;;;;;;;35.53;8.98;;;;;;;10.77;100.00;101968.91;5092206;28;20087;-50
2023/01/05 11:00:08;;;;;;;39.53;8.13;;;;;;;10.78;100.00;101964.31;5093054;28;20036;-47
2023/01/05 11:02:38;;;;;;;43.33;8.55;;;;;;;10.80;100.00;101967.59;5079224;28;20048;-48
2023/01/05 11:05:09;;;;;;;35.25;8.73;;;;;;;10.81;100.00;101969.25;5091638;28;20123;-48
2023/01/05 11:08:08;;;;;;;41.15;9.05;;;;;;;10.80;100.00;101973.03;5074658;28;20074;-49
2023/01/05 11:10:57;;;;;;;37.45;8.30;;;;;;;10.82;100.00;101974.50;5082158;28;20048;-48
2023/01/05 11:13:33;;;;;;;42.95;8.40;;;;;;;10.82;100.00;101970.91;5087465;28;20070;-47
2023/01/05 11:16:13;;;;;;;35.90;8.82;;;;;;;10.86;100.00;101977.53;5090363;28;20094;-48
2023/01/05 11:19:06;;;;;;;37.03;8.40;;;;;;;10.84;100.00;101969.59;5091901;28;20044;-48
2023/01/05 11:21:44;;;;;;;35.15;8.13;;;;;;;10.86;100.00;101978.38;5092656;28;20054;-48
2023/01/05 11:24:28;;;;;;;37.85;9.13;;;;;;;10.81;100.00;101970.09;5089831;28;20127;-48
2023/01/05 11:27:01;;;;;;;41.38;9.27;;;;;;;10.76;100.00;101972.72;5085743;28;20462;-46
2023/01/05 11:29:30;;;;;;;40.72;9.55;;;;;;;10.76;100.00;101969.16;5092934;28;20498;-45
2023/01/05 11:32:00;;;;;;;38.25;8.48;;;;;;;10.79;100.00;101965.94;5091328;28;20115;-47
2023/01/05 11:34:48;;;;;;;35.92;8.98;;;;;;;10.77;100.00;101970.81;5060475;28;20044;-48
2023/01/05 11:37:26;;;;;;;39.97;8.73;;;;;;;10.83;100.00;101959.78;5095936;28;20051;-45
2023/01/05 11:40:02;;;;;;;41.55;8.95;;;;;;;10.81;100.00;101958.34;5093379;28;20494;-46
2023/01/05 11:42:34;;;;;;;40.92;8.68;;;;;;;10.81;100.00;101969.25;5082842;28;20040;-45
2023/01/05 11:45:16;;;;;;;44.85;9.60;;;;;;;10.82;100.00;101958.13;5094049;28;20097;-47
2023/01/05 11:47:52;;;;;;;42.08;9.38;;;;;;;10.83;100.00;101950.78;5096454;28;20036;-46
2023/01/05 11:50:28;;;;;;;31.42;6.80;;;;;;;10.86;100.00;101951.09;5095942;28;20056;-46
2023/01/05 11:52:59;;;;;;;42.67;9.73;;;;;;;10.91;100.00;101952.28;5094279;28;20036;-47
2023/01/05 11:55:29;;;;;;;38.45;8.23;;;;;;;10.94;100.00;101958.06;5095898;28;20047;-48
2023/01/05 11:58:16;;;;;;;45.63;12.27;;;;;;;10.98;100.00;101956.50;5095618;28;20502;-47
2023/01/05 12:01:03;;;;;;;35.85;9.23;;;;;;;10.99;100.00;101952.75;4385356;28;10000711;-47
2023/01/05 12:03:55;;;;;;;28.92;8.18;;;;;;;10.99;100.00;101951.88;5105763;28;20087;-47